Time;durP1;ratioP1;P1;durP2;ratioP2;P2;SDS_P1;SDS_P2;PMS_P1;PMS_P2;Temp;Humidity;BMP_temperature;BMP_pressure;BME280_temperature;BME280_humidity;BME280_pressure;Samples;Min_cycle;Max_cycle;Signal;HPM_P1;HPM_P2
2022/03/04 00:01:11;;;;;;;51.55;31.40;;;;;;;;;;4978041;28;20429;-70
2022/03/04 00:03:38;;;;;;;62.03;32.83;;;;;;;;;;4995522;28;20172;-70
2022/03/04 00:06:04;;;;;;;47.25;31.15;;;;;;;;;;4995301;28;20225;-70
2022/03/04 00:08:30;;;;;;;53.73;30.77;;;;;;;;;;4995521;28;20170;-71
2022/03/04 00:10:56;;;;;;;57.97;32.30;;;;;;;;;;4995281;28;20501;-71
2022/03/04 00:13:22;;;;;;;53.88;31.98;;;;;;;;;;4977891;28;20429;-70
2022/03/04 00:15:48;;;;;;;51.63;30.93;;;;;;;;;;4994968;28;20178;-71
2022/03/04 00:18:14;;;;;;;52.43;31.60;;;;;;;;;;4977360;28;20467;-71
2022/03/04 00:20:41;;;;;;;51.65;31.33;;;;;;;;;;4995332;28;20508;-70
2022/03/04 00:23:06;;;;;;;51.70;31.70;;;;;;;;;;4995042;28;20293;-70
2022/03/04 00:25:32;;;;;;;48.70;29.53;;;;;;;;;;4995141;28;20170;-70
2022/03/04 00:27:58;;;;;;;47.83;30.10;;;;;;;;;;4995077;28;20448;-69
2022/03/04 00:30:25;;;;;;;48.33;29.90;;;;;;;;;;4977453;28;20301;-70
2022/03/04 00:32:51;;;;;;;51.03;30.20;;;;;;;;;;4994996;28;20730;-69
2022/03/04 00:35:17;;;;;;;50.90;31.10;;;;;;;;;;4994924;28;20209;-69
2022/03/04 00:37:43;;;;;;;55.60;33.73;;;;;;;;;;4994831;28;20787;-70
2022/03/04 00:40:09;;;;;;;57.97;32.20;;;;;;;;;;4994817;28;20398;-70
2022/03/04 00:42:35;;;;;;;58.55;30.42;;;;;;;;;;4994833;28;20505;-70
2022/03/04 00:45:01;;;;;;;49.53;30.48;;;;;;;;;;4994678;28;20201;-71
2022/03/04 00:47:27;;;;;;;51.75;30.70;;;;;;;;;;4994684;28;20221;-71
2022/03/04 00:49:53;;;;;;;51.63;31.03;;;;;;;;;;4994599;28;20171;-70
2022/03/04 00:52:19;;;;;;;55.50;31.50;;;;;;;;;;4994549;28;20453;-70
2022/03/04 00:54:45;;;;;;;50.42;30.95;;;;;;;;;;4977151;28;20501;-69
2022/03/04 00:57:11;;;;;;;47.40;30.35;;;;;;;;;;4994620;28;20251;-70
2022/03/04 00:59:37;;;;;;;56.43;32.73;;;;;;;;;;4994585;28;20724;-70
2022/03/04 01:02:03;;;;;;;51.35;31.92;;;;;;;;;;4994432;28;20501;-70
2022/03/04 01:04:29;;;;;;;48.63;30.33;;;;;;;;;;4994379;28;20573;-70
2022/03/04 01:06:55;;;;;;;48.47;30.33;;;;;;;;;;4994190;28;20230;-70
2022/03/04 01:09:21;;;;;;;45.87;29.07;;;;;;;;;;4994408;28;20436;-69
2022/03/04 01:11:47;;;;;;;53.13;31.42;;;;;;;;;;4994221;28;20571;-70
2022/03/04 01:14:13;;;;;;;53.17;28.95;;;;;;;;;;4994357;28;20167;-70
2022/03/04 01:16:39;;;;;;;54.70;29.90;;;;;;;;;;4994190;28;20760;-70
2022/03/04 01:19:05;;;;;;;49.67;29.67;;;;;;;;;;4994270;28;20204;-71
2022/03/04 01:21:31;;;;;;;48.20;29.95;;;;;;;;;;4976681;28;20646;-69
2022/03/04 01:23:57;;;;;;;52.65;30.02;;;;;;;;;;4994182;28;20174;-69
2022/03/04 01:26:23;;;;;;;52.13;28.85;;;;;;;;;;4994425;28;20181;-70
2022/03/04 01:28:49;;;;;;;46.72;28.77;;;;;;;;;;4994430;28;20258;-70
2022/03/04 01:31:15;;;;;;;46.97;27.73;;;;;;;;;;4994147;28;20297;-70
2022/03/04 01:33:42;;;;;;;47.10;30.37;;;;;;;;;;4994121;28;20398;-69
2022/03/04 01:36:08;;;;;;;46.47;28.52;;;;;;;;;;4994060;28;20987;-70
2022/03/04 01:38:35;;;;;;;49.63;29.48;;;;;;;;;;4994060;28;20170;-71
2022/03/04 01:41:01;;;;;;;46.80;29.35;;;;;;;;;;4993965;28;20262;-70
2022/03/04 01:43:27;;;;;;;48.42;31.05;;;;;;;;;;4993992;28;20179;-70
2022/03/04 01:45:53;;;;;;;55.90;31.93;;;;;;;;;;4994023;28;20167;-70
2022/03/04 01:48:20;;;;;;;57.88;32.97;;;;;;;;;;4994204;28;20468;-70
2022/03/04 01:50:50;;;;;;;53.58;32.08;;;;;;;;;;4976364;28;20684;-70
2022/03/04 01:53:16;;;;;;;53.78;32.15;;;;;;;;;;4993895;28;20642;-70
2022/03/04 01:55:42;;;;;;;54.40;30.88;;;;;;;;;;4993900;28;20221;-70
2022/03/04 01:58:08;;;;;;;57.25;32.47;;;;;;;;;;4976343;28;20236;-70
2022/03/04 02:00:34;;;;;;;52.65;30.20;;;;;;;;;;4993853;28;20254;-70
2022/03/04 02:03:00;;;;;;;54.22;31.95;;;;;;;;;;4976351;28;20651;-70
2022/03/04 02:05:27;;;;;;;54.53;31.73;;;;;;;;;;4993688;28;20226;-70
2022/03/04 02:07:54;;;;;;;61.05;32.05;;;;;;;;;;4993765;28;20213;-70
2022/03/04 02:10:20;;;;;;;54.15;31.60;;;;;;;;;;4993756;28;20201;-69
2022/03/04 02:12:46;;;;;;;49.80;31.33;;;;;;;;;;4993785;28;20201;-70
2022/03/04 02:15:12;;;;;;;49.03;30.00;;;;;;;;;;4993802;28;20402;-71
2022/03/04 02:17:38;;;;;;;50.65;31.98;;;;;;;;;;4994422;28;20412;-71
2022/03/04 02:20:05;;;;;;;52.88;31.10;;;;;;;;;;4993755;28;20171;-70
2022/03/04 02:22:31;;;;;;;51.85;30.20;;;;;;;;;;4993815;28;20632;-68
2022/03/04 02:24:57;;;;;;;52.50;31.08;;;;;;;;;;4994020;28;20173;-72
2022/03/04 02:27:23;;;;;;;57.85;32.05;;;;;;;;;;4993769;28;20173;-72
2022/03/04 02:29:49;;;;;;;46.93;29.67;;;;;;;;;;4993612;28;20171;-72
2022/03/04 02:32:15;;;;;;;59.00;31.48;;;;;;;;;;4993606;28;20778;-72
2022/03/04 02:34:41;;;;;;;53.47;31.03;;;;;;;;;;4993606;28;20177;-71
2022/03/04 02:37:07;;;;;;;57.23;31.67;;;;;;;;;;4993454;28;20516;-71
2022/03/04 02:39:33;;;;;;;52.13;30.83;;;;;;;;;;4993722;28;20398;-71
2022/03/04 02:41:59;;;;;;;51.97;31.83;;;;;;;;;;4996967;28;20901;-71
2022/03/04 02:44:25;;;;;;;52.55;30.42;;;;;;;;;;4997074;28;20250;-72
2022/03/04 02:46:51;;;;;;;54.75;30.77;;;;;;;;;;4996965;28;20170;-72
2022/03/04 02:49:17;;;;;;;51.13;30.97;;;;;;;;;;4997043;28;20174;-71
2022/03/04 02:51:43;;;;;;;51.77;31.13;;;;;;;;;;4996738;28;20517;-72
2022/03/04 02:54:09;;;;;;;55.80;30.80;;;;;;;;;;4996747;28;20406;-72
2022/03/04 02:56:35;;;;;;;55.50;30.50;;;;;;;;;;4996839;28;20409;-71
2022/03/04 02:59:01;;;;;;;52.85;30.00;;;;;;;;;;4996678;28;20229;-71
2022/03/04 03:01:27;;;;;;;53.70;29.10;;;;;;;;;;4996672;28;20633;-71
2022/03/04 03:03:54;;;;;;;52.70;30.87;;;;;;;;;;4996631;28;20450;-71
2022/03/04 03:06:20;;;;;;;46.50;28.85;;;;;;;;;;4996330;28;20479;-70
2022/03/04 03:08:46;;;;;;;49.57;28.63;;;;;;;;;;4979004;28;20255;-71
2022/03/04 03:11:12;;;;;;;46.43;29.03;;;;;;;;;;4996379;28;20561;-70
2022/03/04 03:13:38;;;;;;;56.33;30.88;;;;;;;;;;4996444;28;20496;-69
2022/03/04 03:16:04;;;;;;;51.72;30.13;;;;;;;;;;4996380;28;20249;-70
2022/03/04 03:18:30;;;;;;;52.17;29.70;;;;;;;;;;4996618;28;20178;-70
2022/03/04 03:20:56;;;;;;;49.90;29.85;;;;;;;;;;4996652;28;20197;-70
2022/03/04 03:23:22;;;;;;;51.37;30.90;;;;;;;;;;4996530;28;20642;-71
2022/03/04 03:25:48;;;;;;;49.92;29.27;;;;;;;;;;4996210;28;20451;-70
2022/03/04 03:28:14;;;;;;;52.97;30.27;;;;;;;;;;4996228;28;20272;-70
2022/03/04 03:30:40;;;;;;;52.67;28.67;;;;;;;;;;4978547;28;20461;-69
2022/03/04 03:33:06;;;;;;;50.03;27.93;;;;;;;;;;4996190;28;20468;-70
2022/03/04 03:35:32;;;;;;;57.65;29.42;;;;;;;;;;4996332;28;20456;-70
2022/03/04 03:37:58;;;;;;;52.50;30.70;;;;;;;;;;4995949;28;20179;-69
2022/03/04 03:40:24;;;;;;;42.03;27.97;;;;;;;;;;4995938;28;20912;-71
2022/03/04 03:42:50;;;;;;;43.73;27.20;;;;;;;;;;4995877;28;20509;-69
2022/03/04 03:45:16;;;;;;;52.37;29.93;;;;;;;;;;4978438;28;20418;-70
2022/03/04 03:47:42;;;;;;;53.20;31.13;;;;;;;;;;4995846;28;20410;-71
2022/03/04 03:50:09;;;;;;;53.60;28.40;;;;;;;;;;4995921;28;20416;-69
2022/03/04 03:52:36;;;;;;;50.25;29.25;;;;;;;;;;4995474;28;20236;-70
2022/03/04 03:55:02;;;;;;;47.10;28.85;;;;;;;;;;4995711;28;20535;-71
2022/03/04 03:57:28;;;;;;;49.53;28.67;;;;;;;;;;4995703;28;20261;-69
2022/03/04 03:59:54;;;;;;;48.35;29.95;;;;;;;;;;4995675;28;20246;-70
2022/03/04 04:02:20;;;;;;;52.17;29.90;;;;;;;;;;4978094;28;20672;-70
2022/03/04 04:04:46;;;;;;;50.63;29.77;;;;;;;;;;4977884;28;20414;-70
2022/03/04 04:07:12;;;;;;;53.47;30.23;;;;;;;;;;4995644;28;20457;-70
2022/03/04 04:09:38;;;;;;;49.25;30.27;;;;;;;;;;4995394;28;20621;-69
2022/03/04 04:12:05;;;;;;;45.72;29.00;;;;;;;;;;4977830;28;20305;-70
2022/03/04 04:14:31;;;;;;;50.50;29.05;;;;;;;;;;4995297;28;20159;-71
2022/03/04 04:16:57;;;;;;;54.08;29.85;;;;;;;;;;4977835;28;20186;-70
2022/03/04 04:19:23;;;;;;;49.73;30.47;;;;;;;;;;4995281;28;20181;-70
2022/03/04 04:21:50;;;;;;;48.45;29.10;;;;;;;;;;4995021;28;20781;-71
2022/03/04 04:24:16;;;;;;;53.78;30.13;;;;;;;;;;4995124;28;20179;-70
2022/03/04 04:26:42;;;;;;;48.28;30.20;;;;;;;;;;4995080;28;20170;-70
2022/03/04 04:29:08;;;;;;;49.90;29.58;;;;;;;;;;4995085;28;20537;-70
2022/03/04 04:31:35;;;;;;;56.65;31.00;;;;;;;;;;4994943;28;20257;-71
2022/03/04 04:34:01;;;;;;;47.97;29.50;;;;;;;;;;4995261;28;20266;-70
2022/03/04 04:36:28;;;;;;;54.13;31.73;;;;;;;;;;4994951;28;20213;-71
2022/03/04 04:38:54;;;;;;;52.70;30.10;;;;;;;;;;4994875;28;20624;-70
2022/03/04 04:41:20;;;;;;;52.83;31.58;;;;;;;;;;4994799;28;20171;-67
2022/03/04 04:43:46;;;;;;;49.05;30.40;;;;;;;;;;4994800;28;20198;-70
2022/03/04 04:46:12;;;;;;;50.07;29.80;;;;;;;;;;4995004;28;20174;-69
2022/03/04 04:48:39;;;;;;;52.65;30.65;;;;;;;;;;4994733;28;20394;-69
2022/03/04 04:51:05;;;;;;;56.97;29.67;;;;;;;;;;4977098;28;20202;-69
2022/03/04 04:53:31;;;;;;;54.85;31.45;;;;;;;;;;4994644;28;20542;-70
2022/03/04 04:55:57;;;;;;;50.17;28.77;;;;;;;;;;4994582;28;20186;-70
2022/03/04 04:58:24;;;;;;;48.72;29.90;;;;;;;;;;4994487;28;20175;-69
2022/03/04 05:00:53;;;;;;;55.20;31.90;;;;;;;;;;4994464;28;20576;-70
2022/03/04 05:03:23;;;;;;;51.70;30.05;;;;;;;;;;4993930;28;20165;-70
2022/03/04 05:05:49;;;;;;;53.38;30.70;;;;;;;;;;4994335;28;20232;-70
2022/03/04 05:08:15;;;;;;;54.40;31.25;;;;;;;;;;4994647;28;20269;-70
2022/03/04 05:10:42;;;;;;;52.40;29.60;;;;;;;;;;4994570;28;20288;-71
2022/03/04 05:13:08;;;;;;;53.88;30.45;;;;;;;;;;4994383;28;20209;-71
2022/03/04 05:15:34;;;;;;;52.00;31.20;;;;;;;;;;4994536;28;20178;-71
2022/03/04 05:18:00;;;;;;;50.47;28.65;;;;;;;;;;4994166;28;20171;-70
2022/03/04 05:20:26;;;;;;;51.33;28.73;;;;;;;;;;4994084;28;20167;-70
2022/03/04 05:22:52;;;;;;;49.55;28.80;;;;;;;;;;4994122;28;20428;-70
2022/03/04 05:25:18;;;;;;;48.35;29.00;;;;;;;;;;4994152;28;20170;-71
2022/03/04 05:27:44;;;;;;;50.57;28.87;;;;;;;;;;4994184;28;20185;-70
2022/03/04 05:30:10;;;;;;;49.90;30.90;;;;;;;;;;4976507;28;20509;-71
2022/03/04 05:32:36;;;;;;;47.38;28.60;;;;;;;;;;4994055;28;20455;-70
2022/03/04 05:35:02;;;;;;;47.63;28.55;;;;;;;;;;4994049;28;20224;-69
2022/03/04 05:37:28;;;;;;;53.70;30.23;;;;;;;;;;4994217;28;20174;-70
2022/03/04 05:39:54;;;;;;;47.05;29.85;;;;;;;;;;4976384;28;20185;-70
2022/03/04 05:42:20;;;;;;;44.57;27.70;;;;;;;;;;4993953;28;20178;-71
2022/03/04 05:44:46;;;;;;;49.80;29.23;;;;;;;;;;4993985;28;20410;-69
2022/03/04 05:47:12;;;;;;;50.05;29.08;;;;;;;;;;4993936;28;20821;-70
2022/03/04 05:49:39;;;;;;;49.17;29.05;;;;;;;;;;4994011;28;20171;-70
2022/03/04 05:52:05;;;;;;;47.75;29.70;;;;;;;;;;4993811;28;20707;-70
2022/03/04 05:54:31;;;;;;;61.55;29.15;;;;;;;;;;4993785;28;20178;-70
2022/03/04 05:56:57;;;;;;;49.92;29.17;;;;;;;;;;4993831;28;20312;-70
2022/03/04 05:59:23;;;;;;;51.93;30.20;;;;;;;;;;4993856;28;20685;-69
2022/03/04 06:01:49;;;;;;;51.63;27.60;;;;;;;;;;4976357;28;20456;-70
2022/03/04 06:04:15;;;;;;;48.75;28.17;;;;;;;;;;4993797;28;20417;-69
2022/03/04 06:06:41;;;;;;;50.38;29.17;;;;;;;;;;4993601;28;20250;-69
2022/03/04 06:09:07;;;;;;;56.88;28.45;;;;;;;;;;4993819;28;20163;-70
2022/03/04 06:11:33;;;;;;;46.13;28.80;;;;;;;;;;4976225;28;20247;-70
2022/03/04 06:13:59;;;;;;;47.17;28.50;;;;;;;;;;4993730;28;20900;-70
2022/03/04 06:16:25;;;;;;;43.70;26.17;;;;;;;;;;4996827;28;20409;-69
2022/03/04 06:18:52;;;;;;;151.10;85.63;;;;;;;;;;4997465;28;20174;-69
2022/03/04 06:21:18;;;;;;;47.05;28.92;;;;;;;;;;4997681;28;20410;-69
2022/03/04 06:23:44;;;;;;;42.75;26.52;;;;;;;;;;4997443;28;20163;-70
2022/03/04 06:26:10;;;;;;;46.53;27.60;;;;;;;;;;4997422;28;20166;-71
2022/03/04 06:28:37;;;;;;;44.47;27.33;;;;;;;;;;4997294;28;20221;-70
2022/03/04 06:31:03;;;;;;;51.33;28.15;;;;;;;;;;4997318;28;20203;-70
2022/03/04 06:33:32;;;;;;;44.58;27.45;;;;;;;;;;4997504;28;20175;-68
2022/03/04 06:36:17;;;;;;;43.15;26.25;;;;;;;;;;4997228;28;20167;-72
2022/03/04 06:38:44;;;;;;;72.32;40.50;;;;;;;;;;4997398;28;20167;-70
2022/03/04 06:41:11;;;;;;;43.88;27.88;;;;;;;;;;4979610;28;20270;-66
2022/03/04 06:43:37;;;;;;;42.10;27.45;;;;;;;;;;4997055;28;20167;-69
2022/03/04 06:46:03;;;;;;;47.15;29.63;;;;;;;;;;4997029;28;20194;-68
2022/03/04 06:48:30;;;;;;;45.03;28.13;;;;;;;;;;4996993;28;20194;-67
2022/03/04 06:50:56;;;;;;;41.90;26.38;;;;;;;;;;4996884;28;20198;-69
2022/03/04 06:53:22;;;;;;;46.43;28.57;;;;;;;;;;4996771;28;20178;-68
2022/03/04 06:55:48;;;;;;;47.08;28.23;;;;;;;;;;4996710;28;20406;-68
2022/03/04 06:58:15;;;;;;;45.33;27.45;;;;;;;;;;4978965;28;20183;-68
2022/03/04 07:00:41;;;;;;;45.33;26.63;;;;;;;;;;4996953;28;20174;-67
2022/03/04 07:03:08;;;;;;;43.67;27.20;;;;;;;;;;4996656;28;20248;-67
2022/03/04 07:05:34;;;;;;;44.70;25.00;;;;;;;;;;4996466;28;20226;-67
2022/03/04 07:08:00;;;;;;;37.45;24.20;;;;;;;;;;4996546;28;20174;-67
2022/03/04 07:10:26;;;;;;;41.60;23.85;;;;;;;;;;4996432;28;20234;-66
2022/03/04 07:12:53;;;;;;;34.45;22.60;;;;;;;;;;4996454;28;20202;-67
2022/03/04 07:15:19;;;;;;;42.08;25.20;;;;;;;;;;4996457;28;20182;-67
2022/03/04 07:17:48;;;;;;;38.35;23.50;;;;;;;;;;4996234;28;20174;-66
2022/03/04 07:20:14;;;;;;;36.83;23.10;;;;;;;;;;4996388;28;20656;-66
2022/03/04 07:22:40;;;;;;;34.30;22.97;;;;;;;;;;4996183;28;20179;-67
2022/03/04 07:25:07;;;;;;;34.08;23.08;;;;;;;;;;4996176;28;20406;-66
2022/03/04 07:27:34;;;;;;;37.75;23.73;;;;;;;;;;4995901;28;20182;-66
2022/03/04 07:30:00;;;;;;;30.02;22.75;;;;;;;;;;4996394;28;20229;-66
2022/03/04 07:32:26;;;;;;;32.50;21.90;;;;;;;;;;4996136;28;20261;-66
2022/03/04 07:34:52;;;;;;;36.80;21.07;;;;;;;;;;4996270;28;20235;-66
2022/03/04 07:37:18;;;;;;;35.40;21.77;;;;;;;;;;4996028;28;20440;-67
2022/03/04 07:39:44;;;;;;;46.50;29.87;;;;;;;;;;4996254;28;20394;-67
2022/03/04 07:42:10;;;;;;;38.55;24.40;;;;;;;;;;4995990;28;20442;-66
2022/03/04 07:44:36;;;;;;;44.87;23.27;;;;;;;;;;4996136;28;20262;-66
2022/03/04 07:47:02;;;;;;;32.90;21.25;;;;;;;;;;4978131;28;20784;-66
2022/03/04 07:49:28;;;;;;;31.87;21.10;;;;;;;;;;4995820;28;20182;-66
2022/03/04 07:51:54;;;;;;;29.40;19.87;;;;;;;;;;4995736;28;20485;-66
2022/03/04 07:54:20;;;;;;;31.90;20.37;;;;;;;;;;4995744;28;20401;-66
2022/03/04 07:56:45;;;;;;;33.67;19.50;;;;;;;;;;4995615;28;20841;-65
2022/03/04 07:59:11;;;;;;;34.73;19.47;;;;;;;;;;4995641;28;20406;-66
2022/03/04 08:01:37;;;;;;;28.57;20.13;;;;;;;;;;4995621;28;20420;-66
2022/03/04 08:04:05;;;;;;;25.37;19.67;;;;;;;;;;4995572;28;20394;-66
2022/03/04 08:06:31;;;;;;;26.40;19.20;;;;;;;;;;4995223;28;20473;-68
2022/03/04 08:08:57;;;;;;;28.73;19.85;;;;;;;;;;4995468;28;20166;-68
2022/03/04 08:11:23;;;;;;;28.52;20.20;;;;;;;;;;4995356;28;20202;-67
2022/03/04 08:13:49;;;;;;;29.40;19.93;;;;;;;;;;4977874;28;20265;-68
2022/03/04 08:16:15;;;;;;;26.53;19.43;;;;;;;;;;4995274;28;20414;-67
2022/03/04 08:18:41;;;;;;;28.50;19.53;;;;;;;;;;4995352;28;20420;-67
2022/03/04 08:21:08;;;;;;;30.27;20.23;;;;;;;;;;4995235;28;20417;-66
2022/03/04 08:23:34;;;;;;;31.20;20.38;;;;;;;;;;4995252;28;20159;-66
2022/03/04 08:26:03;;;;;;;27.47;20.30;;;;;;;;;;4995090;28;20174;-68
2022/03/04 08:28:30;;;;;;;31.17;19.48;;;;;;;;;;4995089;28;20869;-66
2022/03/04 08:30:56;;;;;;;33.75;21.05;;;;;;;;;;4995010;28;20197;-68
2022/03/04 08:33:24;;;;;;;28.67;20.02;;;;;;;;;;4994820;28;20289;-66
2022/03/04 08:35:51;;;;;;;29.92;20.20;;;;;;;;;;4995122;28;20159;-68
2022/03/04 08:38:17;;;;;;;32.55;19.50;;;;;;;;;;4994292;28;20190;-68
2022/03/04 08:40:43;;;;;;;37.90;20.08;;;;;;;;;;4994869;28;20173;-69
2022/03/04 08:43:09;;;;;;;30.08;19.80;;;;;;;;;;4995100;28;20166;-68
2022/03/04 08:45:35;;;;;;;27.52;20.23;;;;;;;;;;4994665;28;20175;-68
2022/03/04 08:48:06;;;;;;;31.00;21.20;;;;;;;;;;4994730;28;20178;-67
2022/03/04 08:50:32;;;;;;;26.50;19.55;;;;;;;;;;4994462;28;20461;-67
2022/03/04 08:53:00;;;;;;;28.55;20.13;;;;;;;;;;4994643;28;20194;-67
2022/03/04 08:55:26;;;;;;;26.58;20.10;;;;;;;;;;4994653;28;20617;-69
2022/03/04 08:57:52;;;;;;;30.47;20.47;;;;;;;;;;4994637;28;20174;-68
2022/03/04 09:00:18;;;;;;;28.23;20.90;;;;;;;;;;4994598;28;20402;-66
2022/03/04 09:02:44;;;;;;;27.35;19.45;;;;;;;;;;4994045;28;20439;-69
2022/03/04 09:05:10;;;;;;;40.83;21.27;;;;;;;;;;4994213;28;20277;-68
2022/03/04 09:07:36;;;;;;;33.30;20.93;;;;;;;;;;4994258;28;20426;-67
2022/03/04 09:10:03;;;;;;;27.70;19.90;;;;;;;;;;4994291;28;20771;-67
2022/03/04 09:12:29;;;;;;;24.55;19.70;;;;;;;;;;4994197;28;20425;-66
2022/03/04 09:14:55;;;;;;;31.63;19.83;;;;;;;;;;4994071;28;20174;-66
2022/03/04 09:17:22;;;;;;;29.38;20.15;;;;;;;;;;4994257;28;20440;-65
2022/03/04 09:19:48;;;;;;;28.38;19.40;;;;;;;;;;4994421;28;20198;-66
2022/03/04 09:22:14;;;;;;;30.70;20.95;;;;;;;;;;4994258;28;20182;-67
2022/03/04 09:24:40;;;;;;;29.40;20.75;;;;;;;;;;4976645;28;20265;-66
2022/03/04 09:27:06;;;;;;;25.23;19.25;;;;;;;;;;4994222;28;20684;-68
2022/03/04 09:29:33;;;;;;;28.08;20.38;;;;;;;;;;4994177;28;20173;-69
2022/03/04 09:31:59;;;;;;;28.00;21.48;;;;;;;;;;4994010;28;20276;-65
2022/03/04 09:34:25;;;;;;;28.07;20.50;;;;;;;;;;4994147;28;20162;-65
2022/03/04 09:36:51;;;;;;;29.13;21.47;;;;;;;;;;4993913;28;20436;-69
2022/03/04 09:39:17;;;;;;;28.10;19.93;;;;;;;;;;4993895;28;20424;-66
2022/03/04 09:41:45;;;;;;;27.00;19.70;;;;;;;;;;4993987;28;20421;-66
2022/03/04 09:44:12;;;;;;;26.80;19.10;;;;;;;;;;4994691;28;20476;-68
2022/03/04 09:46:38;;;;;;;26.10;20.00;;;;;;;;;;4994052;28;20414;-68
2022/03/04 09:49:03;;;;;;;28.60;19.93;;;;;;;;;;4995004;28;21008;-64
2022/03/04 09:51:29;;;;;;;29.80;20.23;;;;;;;;;;4997798;28;20473;-69
2022/03/04 09:53:55;;;;;;;27.60;21.00;;;;;;;;;;4980491;28;20501;-69
2022/03/04 09:56:21;;;;;;;25.13;19.93;;;;;;;;;;4981662;28;20421;-70
2022/03/04 09:58:48;;;;;;;26.37;19.17;;;;;;;;;;4997901;28;21024;-70
2022/03/04 10:01:15;;;;;;;22.00;19.30;;;;;;;;;;4997827;28;20410;-71
2022/03/04 10:03:45;;;;;;;27.70;21.90;;;;;;;;;;4997748;28;20409;-70
2022/03/04 10:06:11;;;;;;;26.50;20.83;;;;;;;;;;4997428;28;20481;-70
2022/03/04 10:08:41;;;;;;;24.03;21.53;;;;;;;;;;4997656;28;20448;-70
2022/03/04 10:11:07;;;;;;;23.57;20.70;;;;;;;;;;4997801;28;20461;-71
2022/03/04 10:13:43;;;;;;;24.57;20.77;;;;;;;;;;4997782;28;20478;-71
2022/03/04 10:16:09;;;;;;;24.37;21.40;;;;;;;;;;4997793;28;20410;-71
2022/03/04 10:18:35;;;;;;;22.33;20.17;;;;;;;;;;4997514;28;20414;-71
2022/03/04 10:21:01;;;;;;;23.87;20.17;;;;;;;;;;4997466;28;20468;-71
2022/03/04 10:23:27;;;;;;;22.53;20.13;;;;;;;;;;4997316;28;20420;-71
2022/03/04 10:25:58;;;;;;;21.73;19.43;;;;;;;;;;4979859;28;20429;-71
2022/03/04 10:28:28;;;;;;;23.10;20.60;;;;;;;;;;4997330;28;20987;-71
2022/03/04 10:30:55;;;;;;;26.83;20.70;;;;;;;;;;4997515;28;20528;-72
2022/03/04 10:33:22;;;;;;;24.90;20.50;;;;;;;;;;4997232;28;20402;-70
2022/03/04 10:36:06;;;;;;;22.47;20.10;;;;;;;;;;4997205;28;20412;-71
2022/03/04 10:38:33;;;;;;;23.50;19.97;;;;;;;;;;4997166;28;20846;-72
2022/03/04 10:41:00;;;;;;;23.47;20.97;;;;;;;;;;4997175;28;20426;-72
2022/03/04 10:43:31;;;;;;;22.30;20.17;;;;;;;;;;4997110;28;20547;-71
2022/03/04 10:46:01;;;;;;;22.43;20.13;;;;;;;;;;4997267;28;20406;-72
2022/03/04 10:48:28;;;;;;;25.83;22.80;;;;;;;;;;4997237;28;20415;-72
2022/03/04 10:50:57;;;;;;;23.57;21.10;;;;;;;;;;4997068;28;20551;-72
2022/03/04 10:53:25;;;;;;;23.10;20.67;;;;;;;;;;4996976;28;20430;-72
2022/03/04 10:55:50;;;;;;;26.10;21.27;;;;;;;;;;4996833;28;20407;-72
2022/03/04 10:58:18;;;;;;;25.77;21.30;;;;;;;;;;4996840;28;20419;-72
2022/03/04 11:00:45;;;;;;;27.83;21.63;;;;;;;;;;4995970;28;20433;-71
2022/03/04 11:03:14;;;;;;;27.83;22.10;;;;;;;;;;4996688;28;20433;-72
2022/03/04 11:05:40;;;;;;;23.23;20.90;;;;;;;;;;4996686;28;20585;-71
2022/03/04 11:08:06;;;;;;;23.23;20.83;;;;;;;;;;4996565;28;20913;-71
2022/03/04 11:10:32;;;;;;;23.97;21.50;;;;;;;;;;4996444;28;20457;-70
2022/03/04 11:12:58;;;;;;;24.30;21.83;;;;;;;;;;4996660;28;20933;-71
2022/03/04 11:15:25;;;;;;;24.17;21.40;;;;;;;;;;4996510;28;20407;-71
2022/03/04 11:17:52;;;;;;;25.83;20.40;;;;;;;;;;4996769;28;20780;-71
2022/03/04 11:20:18;;;;;;;28.87;21.57;;;;;;;;;;4996392;28;20738;-71
2022/03/04 11:22:47;;;;;;;22.47;20.17;;;;;;;;;;4996451;28;20431;-71
2022/03/04 11:25:14;;;;;;;23.00;19.47;;;;;;;;;;4996440;28;20404;-71
2022/03/04 11:27:42;;;;;;;24.13;20.27;;;;;;;;;;4996187;28;20417;-71
2022/03/04 11:30:09;;;;;;;22.40;20.00;;;;;;;;;;4996544;28;20764;-71
2022/03/04 11:32:35;;;;;;;22.67;20.40;;;;;;;;;;4996153;28;20943;-71
2022/03/04 11:35:01;;;;;;;21.70;19.50;;;;;;;;;;4996275;28;20915;-70
2022/03/04 11:37:30;;;;;;;21.87;19.80;;;;;;;;;;4996049;28;20415;-71
2022/03/04 11:40:01;;;;;;;22.67;20.10;;;;;;;;;;4996014;28;20916;-70
2022/03/04 11:42:35;;;;;;;23.87;21.37;;;;;;;;;;4996228;28;20431;-70
2022/03/04 11:45:02;;;;;;;22.20;19.80;;;;;;;;;;4978424;28;20519;-70
2022/03/04 11:47:29;;;;;;;21.60;18.50;;;;;;;;;;4995742;28;20900;-70
2022/03/04 11:49:55;;;;;;;31.93;18.77;;;;;;;;;;4995714;28;20427;-71
2022/03/04 11:52:21;;;;;;;22.47;20.10;;;;;;;;;;4995666;28;20484;-69
2022/03/04 11:54:53;;;;;;;21.43;19.33;;;;;;;;;;4995630;28;20815;-70
2022/03/04 11:57:20;;;;;;;31.20;21.10;;;;;;;;;;4995927;28;20750;-71
2022/03/04 11:59:55;;;;;;;22.47;20.07;;;;;;;;;;4995601;28;20508;-67
2022/03/04 12:02:22;;;;;;;22.53;19.37;;;;;;;;;;4995472;28;20414;-70
2022/03/04 12:04:49;;;;;;;24.10;19.33;;;;;;;;;;4995399;28;20405;-70
2022/03/04 12:07:15;;;;;;;22.57;19.13;;;;;;;;;;4995437;28;20425;-70
2022/03/04 12:09:48;;;;;;;21.77;19.40;;;;;;;;;;4995408;28;20468;-70
2022/03/04 12:12:17;;;;;;;19.70;17.90;;;;;;;;;;4994479;28;20527;-70
2022/03/04 12:14:52;;;;;;;25.20;20.37;;;;;;;;;;4994833;28;20445;-69
2022/03/04 12:17:18;;;;;;;21.50;18.87;;;;;;;;;;4995507;28;20414;-68
2022/03/04 12:19:45;;;;;;;22.83;19.50;;;;;;;;;;4995245;28;20888;-68
2022/03/04 12:22:15;;;;;;;20.77;18.70;;;;;;;;;;4995083;28;20424;-66
2022/03/04 12:24:51;;;;;;;22.40;19.10;;;;;;;;;;4995161;28;20904;-68
2022/03/04 12:27:47;;;;;;;21.17;18.93;;;;;;;;;;4995064;28;20425;-68
2022/03/04 12:30:17;;;;;;;24.20;19.80;;;;;;;;;;4978416;28;20434;-68
2022/03/04 12:32:53;;;;;;;20.80;18.30;;;;;;;;;;4995001;28;20421;-67
2022/03/04 12:35:20;;;;;;;21.03;18.53;;;;;;;;;;4995316;28;20450;-68
2022/03/04 12:37:46;;;;;;;23.33;20.50;;;;;;;;;;4994815;28;20424;-69
2022/03/04 12:40:13;;;;;;;26.20;19.57;;;;;;;;;;4995084;28;20409;-69
2022/03/04 12:42:39;;;;;;;23.73;19.50;;;;;;;;;;4995068;28;20451;-70
2022/03/04 12:45:09;;;;;;;23.53;20.70;;;;;;;;;;4994774;28;20413;-72
2022/03/04 12:47:36;;;;;;;23.10;19.90;;;;;;;;;;4994828;28;20411;-70
2022/03/04 12:50:03;;;;;;;23.83;21.30;;;;;;;;;;4994958;28;20497;-74
2022/03/04 12:52:29;;;;;;;21.93;19.57;;;;;;;;;;4977158;28;20477;-73
2022/03/04 12:55:01;;;;;;;24.50;20.20;;;;;;;;;;4994682;28;20916;-72
2022/03/04 12:57:27;;;;;;;19.70;17.80;;;;;;;;;;4977268;28;20440;-70
2022/03/04 12:59:54;;;;;;;23.80;18.23;;;;;;;;;;4994451;28;20438;-67
2022/03/04 13:02:20;;;;;;;25.93;19.53;;;;;;;;;;4994640;28;20893;-71
2022/03/04 13:04:59;;;;;;;23.87;20.57;;;;;;;;;;4994483;28;20966;-67
2022/03/04 13:07:25;;;;;;;22.13;19.50;;;;;;;;;;4976976;28;20474;-71
2022/03/04 13:09:51;;;;;;;23.20;20.00;;;;;;;;;;4994789;28;20474;-67
2022/03/04 13:12:21;;;;;;;28.83;20.20;;;;;;;;;;4994360;28;20988;-67
2022/03/04 13:14:47;;;;;;;22.70;19.00;;;;;;;;;;4994478;28;20822;-68
2022/03/04 13:17:13;;;;;;;21.87;18.30;;;;;;;;;;4994404;28;20421;-68
2022/03/04 13:19:40;;;;;;;20.67;17.90;;;;;;;;;;4994329;28;20404;-69
2022/03/04 13:22:07;;;;;;;24.07;19.27;;;;;;;;;;4994244;28;20944;-69
2022/03/04 13:24:34;;;;;;;23.37;18.50;;;;;;;;;;4993699;28;20405;-70
2022/03/04 13:27:00;;;;;;;20.97;17.60;;;;;;;;;;4994195;28;20928;-64
2022/03/04 13:29:38;;;;;;;28.43;19.93;;;;;;;;;;4994425;28;20421;-70
2022/03/04 13:32:15;;;;;;;22.60;18.77;;;;;;;;;;4994104;28;20500;-69
2022/03/04 13:34:42;;;;;;;19.27;17.27;;;;;;;;;;4994097;28;20416;-76
2022/03/04 13:37:10;;;;;;;24.67;18.27;;;;;;;;;;4994101;28;20424;-68
2022/03/04 13:39:36;;;;;;;24.20;20.33;;;;;;;;;;4994431;28;20405;-68
2022/03/04 13:42:11;;;;;;;21.20;18.90;;;;;;;;;;4994302;28;20414;-71
2022/03/04 13:44:56;;;;;;;24.30;18.67;;;;;;;;;;4993961;28;20900;-71
2022/03/04 13:47:33;;;;;;;22.40;19.40;;;;;;;;;;4994022;28;20412;-73
2022/03/04 13:49:59;;;;;;;23.53;19.83;;;;;;;;;;4994009;28;20407;-73
2022/03/04 13:52:25;;;;;;;23.13;19.03;;;;;;;;;;4976479;28;20881;-73
2022/03/04 13:54:51;;;;;;;26.00;19.63;;;;;;;;;;4993964;28;20403;-72
2022/03/04 13:57:27;;;;;;;27.47;20.33;;;;;;;;;;4993977;28;20423;-72
2022/03/04 13:59:54;;;;;;;26.80;20.90;;;;;;;;;;4993865;28;20409;-74
2022/03/04 14:02:21;;;;;;;30.63;19.93;;;;;;;;;;4994035;28;20498;-71
2022/03/04 14:04:57;;;;;;;28.80;20.10;;;;;;;;;;4993820;28;20470;-71
2022/03/04 14:07:24;;;;;;;25.97;19.70;;;;;;;;;;4976495;28;20480;-71
2022/03/04 14:09:56;;;;;;;26.30;19.60;;;;;;;;;;4993931;28;20923;-71
2022/03/04 14:12:23;;;;;;;26.33;20.30;;;;;;;;;;4993740;28;20549;-72
2022/03/04 14:14:50;;;;;;;30.17;21.77;;;;;;;;;;4976220;28;20431;-71